Time;durP1;ratioP1;P1;durP2;ratioP2;P2;SDS_P1;SDS_P2;PMS_P1;PMS_P2;Temp;Humidity;BMP_temperature;BMP_pressure;BME280_temperature;BME280_humidity;BME280_pressure;Samples;Min_cycle;Max_cycle;Signal;HPM_P1;HPM_P2
2022/07/11 00:00:14;;;;;;;4.72;1.73;;;18.80;99.90;;;;;;5021826;28;20215;-89
2022/07/11 00:02:44;;;;;;;6.07;2.08;;;18.80;99.90;;;;;;5030154;28;20236;-90
2022/07/11 00:05:13;;;;;;;5.70;1.73;;;18.80;99.90;;;;;;5056213;28;20228;-90
2022/07/11 00:07:41;;;;;;;9.95;2.33;;;18.80;99.90;;;;;;5057822;28;20235;-89
2022/07/11 00:10:17;;;;;;;4.38;1.88;;;18.80;99.90;;;;;;5048598;28;20218;-89
2022/07/11 00:12:44;;;;;;;2.28;1.85;;;18.80;99.90;;;;;;5050368;28;20205;-89
2022/07/11 00:15:12;;;;;;;4.90;1.80;;;18.80;99.90;;;;;;5061029;28;20209;-89
2022/07/11 00:17:46;;;;;;;2.60;1.88;;;18.80;99.90;;;;;;5057148;28;20214;-90
2022/07/11 00:20:29;;;;;;;5.80;1.92;;;18.80;99.90;;;;;;5055788;28;20208;-91
2022/07/11 00:22:57;;;;;;;4.25;1.77;;;18.70;99.90;;;;;;5055994;28;20264;-91
2022/07/11 00:25:29;;;;;;;4.95;1.85;;;18.70;99.90;;;;;;5046971;28;20202;-89
2022/07/11 00:27:59;;;;;;;5.95;1.90;;;18.70;99.90;;;;;;5052262;28;20209;-88
2022/07/11 00:30:27;;;;;;;3.22;1.83;;;18.70;99.90;;;;;;5060129;28;20202;-90
2022/07/11 00:33:05;;;;;;;3.00;1.73;;;18.70;99.90;;;;;;5063862;28;20664;-90
2022/07/11 00:35:39;;;;;;;5.15;1.75;;;18.70;99.90;;;;;;5045420;28;20228;-90
2022/07/11 00:38:18;;;;;;;4.50;1.90;;;18.70;99.90;;;;;;5055528;28;20210;-89
2022/07/11 00:40:49;;;;;;;3.08;2.05;;;18.70;99.90;;;;;;5051371;28;20230;-89
2022/07/11 00:43:19;;;;;;;4.25;1.70;;;18.60;99.90;;;;;;5062145;28;20255;-89
2022/07/11 00:46:00;;;;;;;3.28;1.92;;;18.70;99.90;;;;;;5059290;28;20204;-90
2022/07/11 00:48:28;;;;;;;3.92;1.90;;;18.70;99.90;;;;;;5069453;28;20304;-90
2022/07/11 00:51:02;;;;;;;3.15;1.90;;;18.70;99.90;;;;;;5068455;28;20213;-90
2022/07/11 00:53:31;;;;;;;4.05;1.73;;;18.60;99.90;;;;;;5063105;28;20202;-90
2022/07/11 00:56:26;;;;;;;1.50;1.40;;;18.60;99.90;;;;;;5064037;28;20570;-90
2022/07/11 00:59:32;;;;;;;5.68;2.40;;;18.60;99.90;;;;;;5061307;28;20672;-88
2022/07/11 01:02:10;;;;;;;3.08;1.60;;;18.50;99.90;;;;;;5058622;28;20193;-92
2022/07/11 01:04:40;;;;;;;3.80;1.63;;;18.40;99.90;;;;;;5058682;28;20248;-90
2022/07/11 01:07:13;;;;;;;4.15;1.85;;;18.40;99.90;;;;;;5076061;28;20197;-92
2022/07/11 01:09:42;;;;;;;6.65;1.92;;;18.40;99.90;;;;;;5050557;28;20209;-91
2022/07/11 01:12:12;;;;;;;2.40;1.77;;;18.30;99.90;;;;;;5064232;28;20667;-92
2022/07/11 01:14:51;;;;;;;3.72;1.60;;;18.30;99.90;;;;;;5057285;28;20210;-89
2022/07/11 01:17:24;;;;;;;3.97;1.70;;;18.30;99.90;;;;;;5049600;28;20799;-89
2022/07/11 01:19:56;;;;;;;2.67;1.60;;;18.20;99.90;;;;;;5057260;28;20244;-91
2022/07/11 01:22:27;;;;;;;5.88;2.20;;;18.20;99.90;;;;;;5045027;28;20202;-91
2022/07/11 01:24:57;;;;;;;2.28;1.60;;;18.20;99.90;;;;;;5058311;28;20569;-89
2022/07/11 01:27:25;;;;;;;2.97;1.80;;;18.20;99.90;;;;;;5060819;28;20198;-91
2022/07/11 01:29:56;;;;;;;4.38;2.53;;;18.20;99.90;;;;;;5046460;28;20657;-90
2022/07/11 01:32:28;;;;;;;2.53;1.50;;;18.10;99.90;;;;;;5048101;28;20229;-89
2022/07/11 01:34:55;;;;;;;2.70;1.52;;;18.10;99.90;;;;;;5055355;28;20209;-89
2022/07/11 01:37:30;;;;;;;2.17;1.50;;;18.10;99.90;;;;;;5058786;28;20220;-89
2022/07/11 01:40:02;;;;;;;2.15;1.70;;;18.10;99.90;;;;;;5045369;28;20257;-88
2022/07/11 01:42:33;;;;;;;2.58;1.50;;;18.00;99.90;;;;;;5050319;28;20200;-89
2022/07/11 01:45:02;;;;;;;3.80;1.83;;;18.10;99.90;;;;;;5050753;28;20201;-90
2022/07/11 01:47:46;;;;;;;2.45;1.52;;;18.00;99.90;;;;;;5050554;28;20911;-90
2022/07/11 01:50:31;;;;;;;2.00;1.58;;;18.10;99.90;;;;;;5052486;28;20875;-89
2022/07/11 01:53:02;;;;;;;2.28;1.55;;;18.10;99.90;;;;;;5047301;28;20221;-89
2022/07/11 01:55:37;;;;;;;1.70;1.38;;;18.10;99.90;;;;;;5056738;28;20291;-90
2022/07/11 01:58:30;;;;;;;3.50;1.52;;;18.10;99.90;;;;;;5045868;28;20191;-89
2022/07/11 02:01:04;;;;;;;1.67;1.50;;;18.10;99.90;;;;;;5052463;28;20284;-89
2022/07/11 02:03:31;;;;;;;2.90;1.40;;;18.00;99.90;;;;;;5049140;28;20221;-90
2022/07/11 02:06:04;;;;;;;2.35;1.70;;;18.00;99.90;;;;;;5049517;28;20316;-90
2022/07/11 02:09:00;;;;;;;2.78;1.77;;;18.00;99.90;;;;;;5044960;28;20200;-90
2022/07/11 02:11:33;;;;;;;2.13;1.58;;;18.00;99.90;;;;;;5056106;28;20252;-89
2022/07/11 02:14:04;;;;;;;2.05;1.70;;;18.00;99.90;;;;;;5047380;28;20232;-89
2022/07/11 02:16:31;;;;;;;4.93;1.63;;;18.00;99.90;;;;;;5062640;28;20204;-93
2022/07/11 02:19:07;;;;;;;2.95;1.70;;;18.00;99.90;;;;;;5060164;28;20213;-94
2022/07/11 02:21:42;;;;;;;3.53;2.03;;;18.00;99.90;;;;;;5052929;28;20258;-92
2022/07/11 02:24:14;;;;;;;2.47;1.40;;;17.90;99.90;;;;;;5050183;28;20201;-94
2022/07/11 02:26:51;;;;;;;2.38;1.67;;;17.90;99.90;;;;;;5051104;28;20920;-94
2022/07/11 02:29:24;;;;;;;3.25;1.92;;;17.90;99.90;;;;;;5050153;28;20288;-93
2022/07/11 02:31:56;;;;;;;3.08;1.92;;;17.80;99.90;;;;;;5057347;28;20740;-94
2022/07/11 02:34:27;;;;;;;3.33;2.20;;;17.80;99.90;;;;;;5049499;28;20217;-95
2022/07/11 02:37:21;;;;;;;4.50;1.90;;;17.80;99.90;;;;;;5056016;28;20205;-94
2022/07/11 02:40:03;;;;;;;2.85;2.17;;;17.80;99.90;;;;;;5048849;28;20211;-94
2022/07/11 02:46:12;;;;;;;4.45;2.22;;;17.80;99.90;;;;;;5085813;22;20315;-85
2022/07/11 02:48:39;;;;;;;4.05;2.55;;;17.70;99.90;;;;;;5099122;28;20215;-84
2022/07/11 02:51:06;;;;;;;2.90;2.50;;;17.70;99.90;;;;;;5117457;28;20236;-84
2022/07/11 02:53:33;;;;;;;4.30;1.90;;;17.70;99.90;;;;;;5117894;28;20235;-84
2022/07/11 02:55:59;;;;;;;2.28;1.70;;;17.70;99.90;;;;;;5112624;28;20207;-82
2022/07/11 02:58:27;;;;;;;3.75;2.30;;;17.70;99.90;;;;;;5099772;28;20206;-83
2022/07/11 03:00:54;;;;;;;2.92;1.90;;;17.70;99.90;;;;;;5113146;28;20203;-84
2022/07/11 03:03:21;;;;;;;5.35;2.10;;;17.70;99.90;;;;;;5122971;27;20211;-84
2022/07/11 03:05:48;;;;;;;4.68;2.35;;;17.70;99.90;;;;;;5123205;27;20222;-85
2022/07/11 03:08:15;;;;;;;3.15;1.80;;;17.70;99.90;;;;;;5127658;27;20212;-85
2022/07/11 03:10:43;;;;;;;3.65;1.92;;;17.70;99.90;;;;;;5105716;27;20704;-84
2022/07/11 03:13:10;;;;;;;4.07;1.80;;;17.70;99.90;;;;;;5125355;27;20314;-83
2022/07/11 03:15:37;;;;;;;2.57;1.80;;;17.70;99.90;;;;;;5124905;27;20211;-83
2022/07/11 03:18:04;;;;;;;3.75;2.20;;;17.70;99.90;;;;;;5126525;27;20209;-84
2022/07/11 03:20:31;;;;;;;3.58;2.05;;;17.70;99.90;;;;;;5109525;28;20196;-85
2022/07/11 03:22:58;;;;;;;2.80;2.10;;;17.70;99.90;;;;;;5103980;27;20245;-83
2022/07/11 03:25:27;;;;;;;4.60;2.20;;;17.70;99.90;;;;;;5129910;27;20221;-81
2022/07/11 03:27:55;;;;;;;2.55;2.08;;;17.70;99.90;;;;;;5126273;27;20804;-85
2022/07/11 03:30:23;;;;;;;3.45;2.35;;;17.70;99.90;;;;;;5109799;28;20252;-84
2022/07/11 03:32:50;;;;;;;2.97;1.85;;;17.70;99.90;;;;;;5125780;27;20269;-84
2022/07/11 03:38:03;;;;;;;4.63;2.10;;;17.70;99.90;;;;;;5127837;27;20948;-84
2022/07/11 03:40:30;;;;;;;2.53;1.80;;;17.70;99.90;;;;;;5105226;28;20199;-84
2022/07/11 03:42:59;;;;;;;3.35;1.85;;;17.70;99.90;;;;;;5133554;27;20203;-83
2022/07/11 03:45:27;;;;;;;4.30;2.22;;;17.70;99.90;;;;;;5120537;28;20203;-83
2022/07/11 03:47:54;;;;;;;4.40;2.50;;;17.70;99.90;;;;;;5120074;27;20242;-82
2022/07/11 03:50:21;;;;;;;3.55;1.80;;;17.70;99.90;;;;;;5103408;28;20191;-84
2022/07/11 03:52:48;;;;;;;3.15;2.00;;;17.70;99.90;;;;;;5119941;28;20231;-85
2022/07/11 03:55:15;;;;;;;3.28;1.80;;;17.70;99.90;;;;;;5102568;28;20230;-82
2022/07/11 03:57:43;;;;;;;4.10;2.00;;;17.70;99.90;;;;;;5119694;28;20203;-83
2022/07/11 04:00:16;;;;;;;2.60;2.30;;;17.70;99.90;;;;;;5122565;27;20275;-84
2022/07/11 04:02:43;;;;;;;4.78;2.70;;;17.70;99.90;;;;;;5121585;27;20230;-84
2022/07/11 04:05:12;;;;;;;4.53;2.20;;;17.70;99.90;;;;;;5117914;27;20219;-83
2022/07/11 04:07:42;;;;;;;5.95;2.30;;;17.80;99.90;;;;;;5121475;27;20676;-84
2022/07/11 04:10:09;;;;;;;2.80;2.47;;;17.80;99.90;;;;;;5100658;28;20298;-84
2022/07/11 04:12:36;;;;;;;4.15;2.42;;;17.70;99.90;;;;;;5117637;27;21092;-83
2022/07/11 04:15:04;;;;;;;4.82;2.70;;;17.70;99.90;;;;;;5121413;27;20213;-83
2022/07/11 04:17:35;;;;;;;4.32;2.58;;;17.80;99.90;;;;;;5119044;27;20203;-83
2022/07/11 04:20:05;;;;;;;3.47;2.10;;;17.70;99.90;;;;;;5099532;28;20219;-83
2022/07/11 04:22:34;;;;;;;4.40;2.70;;;17.80;99.90;;;;;;5118143;27;20207;-85
2022/07/11 04:25:01;;;;;;;3.75;2.40;;;17.80;99.90;;;;;;5121225;27;20270;-83
2022/07/11 04:27:29;;;;;;;5.45;3.05;;;17.80;99.90;;;;;;5102725;28;20203;-87
2022/07/11 04:29:57;;;;;;;2.97;2.45;;;17.80;99.90;;;;;;5104573;28;20203;-85
2022/07/11 04:32:25;;;;;;;4.38;3.00;;;17.80;99.90;;;;;;5121770;27;20226;-84
2022/07/11 04:34:52;;;;;;;3.47;2.50;;;17.80;99.90;;;;;;5099184;28;20222;-83
2022/07/11 04:37:19;;;;;;;5.53;2.38;;;17.80;99.90;;;;;;5119305;27;20218;-84
2022/07/11 04:39:47;;;;;;;3.22;2.50;;;17.80;99.90;;;;;;5101506;27;20218;-83
2022/07/11 04:42:15;;;;;;;4.20;2.90;;;17.80;99.90;;;;;;5120639;27;20214;-83
2022/07/11 04:44:42;;;;;;;4.45;3.20;;;17.80;99.90;;;;;;5116440;28;20226;-83
2022/07/11 04:47:09;;;;;;;5.85;2.97;;;17.80;99.90;;;;;;5095984;28;20235;-85
2022/07/11 04:49:37;;;;;;;7.50;3.10;;;17.80;99.90;;;;;;5120786;27;20564;-83
2022/07/11 04:52:05;;;;;;;3.05;2.45;;;17.80;99.90;;;;;;5119441;27;20219;-83
2022/07/11 04:54:32;;;;;;;5.57;2.80;;;17.80;99.90;;;;;;5119410;27;20215;-80
2022/07/11 04:56:59;;;;;;;8.50;3.92;;;17.90;99.90;;;;;;5115799;27;20255;-83
2022/07/11 04:59:26;;;;;;;5.10;3.22;;;17.90;99.90;;;;;;5120698;27;20195;-85
2022/07/11 05:01:53;;;;;;;6.85;3.05;;;17.90;99.90;;;;;;5101782;27;20203;-84
2022/07/11 05:04:23;;;;;;;4.90;2.78;;;18.00;99.90;;;;;;5116777;27;20298;-83
2022/07/11 05:06:49;;;;;;;5.93;3.45;;;18.00;99.90;;;;;;5115731;27;20210;-83
2022/07/11 05:09:16;;;;;;;6.63;3.65;;;18.00;99.90;;;;;;5098674;27;20203;-83
2022/07/11 05:11:55;;;;;;;4.97;3.05;;;18.00;99.90;;;;;;5119739;27;20820;-81
2022/07/11 05:14:25;;;;;;;3.47;3.03;;;18.00;99.90;;;;;;5115893;27;20199;-83
2022/07/11 05:16:52;;;;;;;4.35;2.88;;;18.00;99.90;;;;;;5120837;27;20202;-83
2022/07/11 05:19:19;;;;;;;7.00;3.30;;;18.00;99.90;;;;;;5120366;27;20631;-82
2022/07/11 05:21:48;;;;;;;4.30;3.08;;;18.00;99.90;;;;;;5118114;28;20230;-82
2022/07/11 05:24:18;;;;;;;4.78;3.00;;;18.00;99.90;;;;;;5114647;27;20222;-83
2022/07/11 05:26:46;;;;;;;6.07;3.65;;;18.00;99.90;;;;;;5115635;27;20214;-83
2022/07/11 05:29:14;;;;;;;6.18;3.10;;;18.00;99.90;;;;;;5115215;27;20204;-82
2022/07/11 05:31:42;;;;;;;6.40;3.17;;;18.10;99.90;;;;;;5118870;27;20290;-83
2022/07/11 05:34:12;;;;;;;5.38;3.00;;;18.00;99.90;;;;;;5115212;28;20218;-83
2022/07/11 05:36:43;;;;;;;4.13;2.97;;;18.10;99.90;;;;;;5113000;27;20876;-82
2022/07/11 05:39:10;;;;;;;4.85;3.28;;;18.10;99.90;;;;;;5115302;27;20226;-83
2022/07/11 05:41:38;;;;;;;6.80;3.10;;;18.10;99.90;;;;;;5118494;27;20211;-83
2022/07/11 05:44:05;;;;;;;4.82;2.63;;;18.10;99.90;;;;;;5116355;27;20243;-84
2022/07/11 05:46:32;;;;;;;3.28;2.33;;;18.20;99.90;;;;;;5101917;27;20246;-82
2022/07/11 05:48:59;;;;;;;4.50;2.90;;;18.10;99.90;;;;;;5129537;27;20838;-81
2022/07/11 05:51:26;;;;;;;3.83;2.25;;;18.10;99.90;;;;;;5125329;28;20192;-81
2022/07/11 05:53:54;;;;;;;3.78;2.40;;;18.20;99.90;;;;;;5108605;28;20408;-84
2022/07/11 05:56:21;;;;;;;3.20;2.00;;;18.20;99.90;;;;;;5107544;28;20225;-83
2022/07/11 05:58:50;;;;;;;4.80;2.60;;;18.20;99.90;;;;;;5127099;27;21482;-81
2022/07/11 06:01:18;;;;;;;4.70;2.38;;;18.30;99.90;;;;;;5125304;27;20243;-82
2022/07/11 06:03:46;;;;;;;3.83;2.55;;;18.30;99.90;;;;;;5115693;28;20230;-81
2022/07/11 06:06:14;;;;;;;4.07;2.17;;;18.30;99.90;;;;;;5110549;28;21158;-80
2022/07/11 06:08:41;;;;;;;3.03;2.00;;;18.30;99.90;;;;;;5110540;28;20269;-81
2022/07/11 06:11:10;;;;;;;1.88;1.67;;;18.40;99.90;;;;;;5114476;27;20219;-80
2022/07/11 06:13:39;;;;;;;4.57;2.10;;;18.40;99.90;;;;;;5114248;27;20229;-81
2022/07/11 06:16:07;;;;;;;4.15;1.52;;;18.40;99.90;;;;;;5120135;28;20216;-82
2022/07/11 06:18:35;;;;;;;3.22;1.88;;;18.50;99.90;;;;;;5114507;28;20215;-81
2022/07/11 06:21:03;;;;;;;1.92;1.45;;;18.50;99.90;;;;;;5095080;28;20194;-80
2022/07/11 06:23:37;;;;;;;1.40;1.30;;;18.50;99.90;;;;;;5117031;28;20198;-83
2022/07/11 06:26:05;;;;;;;1.27;1.05;;;18.60;99.90;;;;;;5115150;28;20216;-83
2022/07/11 06:28:34;;;;;;;1.88;1.50;;;18.50;99.90;;;;;;5097483;28;20208;-82
2022/07/11 06:31:02;;;;;;;1.70;1.50;;;18.50;99.90;;;;;;5122790;28;20210;-83
2022/07/11 06:33:31;;;;;;;2.30;1.88;;;18.50;99.90;;;;;;5101583;28;20227;-81
2022/07/11 06:35:58;;;;;;;1.80;1.70;;;18.50;99.90;;;;;;5102415;28;20203;-83
2022/07/11 06:38:25;;;;;;;1.92;1.63;;;18.50;99.90;;;;;;5124727;28;20554;-81
2022/07/11 06:40:53;;;;;;;2.50;1.50;;;18.60;99.90;;;;;;5120400;27;20717;-81
2022/07/11 06:43:23;;;;;;;1.45;1.20;;;18.70;99.90;;;;;;5123869;27;20207;-81
2022/07/11 06:45:54;;;;;;;1.20;1.10;;;18.80;99.90;;;;;;5122200;27;20199;-81
2022/07/11 06:48:21;;;;;;;1.13;1.02;;;19.00;99.90;;;;;;5096104;28;20214;-80
2022/07/11 06:50:48;;;;;;;1.75;1.05;;;19.10;99.90;;;;;;5107173;28;20708;-81
2022/07/11 06:53:15;;;;;;;2.38;1.08;;;19.20;99.90;;;;;;5095016;28;20219;-81
2022/07/11 06:55:42;;;;;;;0.70;0.70;;;19.30;99.90;;;;;;5090565;28;20596;-80
2022/07/11 06:58:09;;;;;;;2.35;0.98;;;19.40;99.90;;;;;;5093806;28;20196;-81
2022/07/11 07:00:52;;;;;;;1.50;0.60;;;19.50;99.90;;;;;;5091247;28;20214;-77
2022/07/11 07:03:20;;;;;;;0.85;0.63;;;19.60;99.90;;;;;;5087500;28;20250;-81
2022/07/11 07:05:47;;;;;;;1.67;0.70;;;19.70;99.90;;;;;;5099047;28;21656;-82
2022/07/11 07:08:14;;;;;;;1.05;0.77;;;19.70;99.90;;;;;;5101000;28;20192;-85
2022/07/11 07:10:48;;;;;;;1.30;0.90;;;19.70;99.90;;;;;;5096831;28;20200;-82
2022/07/11 07:13:15;;;;;;;0.82;0.82;;;19.70;99.90;;;;;;5103550;28;20330;-80
2022/07/11 07:15:42;;;;;;;1.38;0.95;;;19.60;99.90;;;;;;5103352;28;20208;-85
2022/07/11 07:18:10;;;;;;;1.35;1.10;;;19.70;99.90;;;;;;5101698;28;20223;-83
2022/07/11 07:20:37;;;;;;;1.10;1.05;;;19.80;99.90;;;;;;5100405;28;20231;-85
2022/07/11 07:23:04;;;;;;;1.15;1.05;;;20.00;99.90;;;;;;5106326;28;20218;-84
2022/07/11 07:25:31;;;;;;;0.50;0.50;;;20.30;99.90;;;;;;5098824;28;20211;-84
2022/07/11 07:27:59;;;;;;;1.20;0.90;;;;;;;;;;5102318;28;20207;-85
2022/07/11 07:30:26;;;;;;;1.30;0.95;;;20.90;99.90;;;;;;5095505;28;20199;-83
2022/07/11 07:32:53;;;;;;;1.33;0.60;;;21.20;99.90;;;;;;5091449;28;20216;-86
2022/07/11 07:35:19;;;;;;;1.23;0.88;;;21.40;99.90;;;;;;5092715;28;20207;-85
2022/07/11 07:37:46;;;;;;;1.40;0.70;;;21.70;99.90;;;;;;5085418;28;20219;-85
2022/07/11 07:40:14;;;;;;;0.60;0.55;;;21.80;99.90;;;;;;5075634;28;20710;-84
2022/07/11 07:42:41;;;;;;;0.85;0.35;;;22.00;99.90;;;;;;5083433;28;20533;-85
2022/07/11 07:45:11;;;;;;;0.38;0.38;;;22.10;99.90;;;;;;5083556;28;20196;-85
2022/07/11 07:47:38;;;;;;;2.25;0.50;;;22.00;99.90;;;;;;5099204;27;20234;-83
2022/07/11 07:50:05;;;;;;;0.80;0.80;;;21.90;99.90;;;;;;5093818;28;20223;-86
2022/07/11 07:52:32;;;;;;;0.45;0.45;;;21.80;99.90;;;;;;5108699;27;20202;-84
2022/07/11 07:54:59;;;;;;;1.20;0.70;;;21.80;99.90;;;;;;5090319;28;20285;-86
2022/07/11 07:57:26;;;;;;;0.50;0.50;;;21.70;99.90;;;;;;5111958;27;20220;-87
2022/07/11 08:01:34;;;;;;;0.50;0.50;;;21.60;99.90;;;;;;5089983;28;20215;-85
2022/07/11 08:02:40;;;;;;;0.60;0.60;;;21.50;99.90;;;;;;5111897;27;20198;-88
2022/07/11 08:05:08;;;;;;;0.73;0.73;;;21.40;99.90;;;;;;5103150;27;20363;-86
2022/07/11 08:07:36;;;;;;;0.65;0.60;;;21.30;99.90;;;;;;5107531;27;20656;-87
2022/07/11 08:10:06;;;;;;;1.63;0.70;;;21.20;99.90;;;;;;5087936;27;20573;-87
2022/07/11 08:12:33;;;;;;;1.55;0.80;;;21.10;99.90;;;;;;5103872;27;20211;-85
2022/07/11 08:15:00;;;;;;;1.42;0.65;;;20.90;99.90;;;;;;5091705;27;20207;-86
2022/07/11 08:17:27;;;;;;;1.33;0.50;;;20.80;99.90;;;;;;5086300;28;20210;-86
2022/07/11 08:19:54;;;;;;;0.57;0.50;;;20.70;99.90;;;;;;5106280;27;20284;-86
2022/07/11 08:22:21;;;;;;;0.98;0.50;;;20.60;99.90;;;;;;5089077;28;20196;-87
2022/07/11 08:24:48;;;;;;;2.22;0.50;;;20.60;99.90;;;;;;5104000;27;20203;-87
2022/07/11 08:27:14;;;;;;;0.95;0.50;;;20.70;99.90;;;;;;5106207;27;20629;-88
2022/07/11 08:30:03;;;;;;;0.50;0.30;;;20.80;99.90;;;;;;5111813;27;20247;-85
2022/07/11 08:32:29;;;;;;;0.70;0.50;;;21.00;99.90;;;;;;5109084;27;20231;-86
2022/07/11 08:34:56;;;;;;;0.50;0.50;;;21.30;99.90;;;;;;5088951;28;20230;-85
2022/07/11 08:37:23;;;;;;;0.40;0.32;;;21.60;99.90;;;;;;5090666;27;20562;-85
2022/07/11 08:39:50;;;;;;;1.58;0.40;;;21.80;99.90;;;;;;5102724;27;20203;-87
2022/07/11 08:42:19;;;;;;;0.40;0.30;;;22.00;99.90;;;;;;5090377;27;20734;-86
2022/07/11 08:44:46;;;;;;;0.70;0.30;;;22.10;99.90;;;;;;5114229;28;20209;-87
2022/07/11 08:47:14;;;;;;;1.48;0.47;;;22.20;99.90;;;;;;5090032;28;20299;-84
2022/07/11 08:49:43;;;;;;;0.43;0.40;;;22.20;99.90;;;;;;5087261;28;20269;-86
2022/07/11 08:52:12;;;;;;;1.27;0.50;;;22.10;99.90;;;;;;5085124;28;20212;-87
2022/07/11 08:54:39;;;;;;;0.43;0.40;;;22.00;99.90;;;;;;5081363;28;20228;-86
2022/07/11 08:57:06;;;;;;;0.70;0.50;;;21.80;99.90;;;;;;5086038;28;20219;-85
2022/07/11 08:59:35;;;;;;;0.98;0.45;;;21.60;99.90;;;;;;5088625;28;20222;-86
2022/07/11 09:02:03;;;;;;;0.63;0.60;;;21.50;99.90;;;;;;5089390;28;20558;-84
2022/07/11 09:04:30;;;;;;;0.70;0.50;;;21.30;99.90;;;;;;5082756;28;20220;-86
2022/07/11 09:07:00;;;;;;;0.68;0.60;;;21.10;99.90;;;;;;5083107;28;20785;-87
2022/07/11 09:09:30;;;;;;;1.13;0.60;;;21.00;99.90;;;;;;5075209;28;20212;-85
2022/07/11 09:11:58;;;;;;;1.38;1.00;;;20.90;99.90;;;;;;5087272;28;20296;-85
2022/07/11 09:14:30;;;;;;;0.75;0.60;;;21.00;99.90;;;;;;5089446;28;20284;-86
2022/07/11 09:17:01;;;;;;;1.08;0.80;;;21.10;99.90;;;;;;5083962;28;20206;-82
2022/07/11 09:19:33;;;;;;;2.13;0.90;;;21.20;99.90;;;;;;5088386;28;20223;-84
2022/07/11 09:28:01;;;;;;;0.77;0.75;;;21.30;99.90;;;;;;5085233;28;20210;-84
2022/07/11 09:30:31;;;;;;;1.42;0.90;;;21.50;99.90;;;;;;5087893;28;20203;-84
2022/07/11 09:33:05;;;;;;;1.80;0.60;;;21.80;99.90;;;;;;5082698;28;20544;-84
2022/07/11 09:35:35;;;;;;;0.65;0.60;;;22.20;99.90;;;;;;5090542;28;20208;-85
2022/07/11 09:38:07;;;;;;;0.73;0.73;;;22.60;99.90;;;;;;5085376;28;20659;-82
2022/07/11 09:40:35;;;;;;;0.75;0.70;;;22.90;99.90;;;;;;5088540;28;20204;-84
2022/07/11 09:43:03;;;;;;;0.63;0.63;;;23.00;99.90;;;;;;5082885;28;20678;-84
2022/07/11 09:45:32;;;;;;;0.73;0.65;;;23.10;99.90;;;;;;5081640;28;20204;-83
2022/07/11 09:48:08;;;;;;;0.80;0.60;;;23.00;99.90;;;;;;5103548;28;20223;-86
2022/07/11 09:50:35;;;;;;;1.40;0.60;;;23.00;99.90;;;;;;5106718;27;20279;-83
2022/07/11 09:53:14;;;;;;;1.98;0.70;;;22.80;99.90;;;;;;5103717;28;20203;-84
2022/07/11 09:55:46;;;;;;;0.70;0.60;;;22.80;99.90;;;;;;5082510;28;20208;-85
2022/07/11 09:58:18;;;;;;;1.48;0.55;;;22.70;99.90;;;;;;5089140;28;20194;-86
2022/07/11 10:00:45;;;;;;;1.38;0.52;;;22.70;99.90;;;;;;5094561;28;20207;-86
2022/07/11 10:03:13;;;;;;;0.85;0.50;;;22.90;99.90;;;;;;5087441;28;20623;-83
2022/07/11 10:06:00;;;;;;;0.85;0.47;;;23.10;99.90;;;;;;5089580;28;20203;-83
2022/07/11 10:08:27;;;;;;;0.60;0.60;;;23.30;99.90;;;;;;5089670;28;20203;-82
2022/07/11 10:10:54;;;;;;;0.63;0.50;;;23.40;99.90;;;;;;5103288;28;20726;-85
2022/07/11 10:13:22;;;;;;;1.50;0.60;;;23.50;99.90;;;;;;5107653;27;20773;-84
2022/07/11 10:15:50;;;;;;;0.50;0.50;;;23.60;99.90;;;;;;5107635;27;20623;-83
2022/07/11 10:18:48;;;;;;;0.50;0.50;;;23.60;99.90;;;;;;5103619;28;20685;-84
2022/07/11 10:21:30;;;;;;;0.50;0.50;;;23.60;99.90;;;;;;5112028;28;20639;-85
2022/07/11 10:24:04;;;;;;;0.80;0.47;;;23.50;99.90;;;;;;5104615;28;20234;-84
2022/07/11 10:26:36;;;;;;;0.40;0.35;;;23.40;99.90;;;;;;5087483;28;20621;-83
2022/07/11 10:29:13;;;;;;;0.40;0.40;;;23.40;99.90;;;;;;5104814;28;20259;-84
2022/07/11 10:32:11;;;;;;;0.55;0.40;;;23.30;99.90;;;;;;5087176;28;20236;-85
2022/07/11 10:34:40;;;;;;;0.40;0.40;;;23.40;99.90;;;;;;5086680;28;20238;-83
2022/07/11 10:37:09;;;;;;;0.30;0.30;;;23.50;99.90;;;;;;5087529;28;20206;-84
2022/07/11 10:39:37;;;;;;;0.68;0.50;;;23.60;99.90;;;;;;5104306;28;20203;-83
2022/07/11 10:42:06;;;;;;;0.63;0.40;;;23.60;99.90;;;;;;5082346;28;20297;-84
2022/07/11 10:44:54;;;;;;;0.50;0.50;;;23.60;99.90;;;;;;5085998;28;20245;-85
2022/07/11 10:47:44;;;;;;;0.75;0.50;;;23.50;99.90;;;;;;5104228;28;20245;-84
2022/07/11 10:50:30;;;;;;;0.60;0.60;;;23.40;99.90;;;;;;5097170;28;20214;-86
2022/07/11 10:52:59;;;;;;;2.10;0.65;;;23.20;99.90;;;;;;5080491;28;20191;-86
2022/07/11 10:55:36;;;;;;;1.88;0.60;;;23.20;99.90;;;;;;5090219;28;21056;-85
2022/07/11 10:58:20;;;;;;;2.38;0.70;;;23.30;99.90;;;;;;5093603;28;20217;-86
2022/07/11 11:01:07;;;;;;;1.60;0.70;;;23.20;99.90;;;;;;5104483;28;20233;-86
2022/07/11 11:03:34;;;;;;;0.73;0.40;;;23.40;99.90;;;;;;5083750;28;20320;-82
2022/07/11 11:06:01;;;;;;;0.65;0.43;;;23.60;99.90;;;;;;5101658;28;20202;-84
2022/07/11 11:08:34;;;;;;;0.68;0.47;;;23.80;99.90;;;;;;5104464;28;20225;-82
2022/07/11 11:11:07;;;;;;;0.47;0.47;;;24.00;99.90;;;;;;5100793;28;20242;-82
2022/07/11 11:13:36;;;;;;;1.13;0.40;;;24.00;99.90;;;;;;5099990;28;20231;-85
2022/07/11 11:16:19;;;;;;;0.38;0.38;;;24.00;99.90;;;;;;5100682;28;20318;-79
2022/07/11 11:18:46;;;;;;;0.40;0.40;;;24.00;99.90;;;;;;5101945;28;20292;-81
2022/07/11 11:21:18;;;;;;;0.50;0.50;;;24.00;99.90;;;;;;5101178;28;20229;-82
2022/07/11 11:24:01;;;;;;;0.50;0.50;;;23.80;99.90;;;;;;5108429;27;20226;-82
2022/07/11 11:27:01;;;;;;;1.33;0.50;;;23.60;99.90;;;;;;5101676;27;20260;-86
2022/07/11 11:29:29;;;;;;;1.50;0.68;;;23.50;99.90;;;;;;5067779;27;20194;-81
2022/07/11 11:31:59;;;;;;;0.50;0.50;;;23.50;99.90;;;;;;5107495;27;20547;-83
2022/07/11 11:34:26;;;;;;;2.30;0.77;;;23.50;99.90;;;;;;5107804;27;20223;-82
2022/07/11 11:37:01;;;;;;;0.65;0.60;;;23.40;99.90;;;;;;5087441;27;20284;-81
2022/07/11 11:39:34;;;;;;;1.38;0.55;;;23.50;99.90;;;;;;5086488;28;20203;-81
2022/07/11 11:42:09;;;;;;;0.60;0.60;;;23.40;99.90;;;;;;5105967;27;20250;-83
2022/07/11 11:44:55;;;;;;;0.90;0.65;;;23.20;99.90;;;;;;5088226;28;20198;-81
2022/07/11 11:47:23;;;;;;;1.33;0.60;;;23.10;99.90;;;;;;5098694;28;20223;-80
2022/07/11 11:49:51;;;;;;;1.33;0.93;;;23.00;99.90;;;;;;5108265;27;20361;-79
2022/07/11 11:52:18;;;;;;;0.60;0.60;;;22.90;99.90;;;;;;5104738;27;20569;-79
2022/07/11 11:54:54;;;;;;;1.73;0.70;;;22.90;99.90;;;;;;5104265;28;20258;-81
2022/07/11 11:57:23;;;;;;;1.48;0.60;;;22.80;99.90;;;;;;5104179;27;20207;-81
2022/07/11 11:59:51;;;;;;;1.38;0.75;;;22.80;99.90;;;;;;5113059;27;20202;-79
2022/07/11 12:02:26;;;;;;;1.60;0.70;;;22.80;99.90;;;;;;5106253;27;20959;-82
2022/07/11 12:04:53;;;;;;;0.73;0.70;;;22.80;99.90;;;;;;5107094;27;20560;-80
2022/07/11 12:07:28;;;;;;;0.80;0.80;;;22.90;99.90;;;;;;5107788;27;20203;-80
2022/07/11 12:09:59;;;;;;;0.60;0.60;;;23.00;99.90;;;;;;5106442;27;20313;-80
2022/07/11 12:12:43;;;;;;;0.80;0.60;;;23.00;99.90;;;;;;5100345;27;20207;-79
2022/07/11 12:15:31;;;;;;;0.60;0.60;;;23.20;99.90;;;;;;5080388;28;20227;-79
2022/07/11 12:18:04;;;;;;;1.77;0.65;;;23.20;99.90;;;;;;5115442;22;20559;-88
2022/07/11 12:20:43;;;;;;;0.80;0.80;;;23.20;99.90;;;;;;5103117;27;20642;-86
2022/07/11 12:23:12;;;;;;;0.73;0.68;;;23.20;99.90;;;;;;5103636;28;20202;-86
2022/07/11 12:25:50;;;;;;;1.67;0.50;;;23.30;99.90;;;;;;5105149;28;20207;-84
2022/07/11 12:28:21;;;;;;;0.70;0.70;;;23.30;99.90;;;;;;5090673;28;20600;-84
2022/07/11 12:30:55;;;;;;;1.55;0.65;;;23.20;99.90;;;;;;5110945;27;20860;-85
2022/07/11 12:33:28;;;;;;;1.15;0.80;;;23.20;99.90;;;;;;5104275;27;20222;-87
2022/07/11 12:36:12;;;;;;;1.88;0.80;;;23.20;99.90;;;;;;5112806;27;20233;-87
2022/07/11 12:38:52;;;;;;;0.63;0.50;;;23.30;99.90;;;;;;5103943;27;20752;-84
2022/07/11 12:41:22;;;;;;;0.75;0.75;;;23.30;99.90;;;;;;5100625;28;20221;-85
2022/07/11 12:46:39;;;;;;;0.63;0.60;;;23.50;99.90;;;;;;5112913;27;20208;-87
2022/07/11 12:49:15;;;;;;;1.35;0.50;;;23.60;99.90;;;;;;5098751;28;20210;-85
2022/07/11 12:51:44;;;;;;;0.93;0.68;;;23.80;99.90;;;;;;5104816;28;20218;-86
2022/07/11 12:54:14;;;;;;;0.50;0.50;;;23.90;99.90;;;;;;5103458;28;20220;-83
2022/07/11 12:56:57;;;;;;;0.68;0.60;;;23.90;99.90;;;;;;5118521;28;20203;-87
2022/07/11 12:59:31;;;;;;;0.85;0.60;;;23.90;99.90;;;;;;5109062;27;20196;-87
2022/07/11 13:02:00;;;;;;;0.68;0.60;;;23.90;99.90;;;;;;5109993;27;20255;-87
2022/07/11 13:04:41;;;;;;;1.10;0.65;;;23.90;99.90;;;;;;5106420;28;20219;-86
2022/07/11 13:10:20;;;;;;;0.60;0.60;;;23.60;99.90;;;;;;5106861;28;20282;-87
2022/07/11 13:12:50;;;;;;;1.30;0.60;;;23.50;99.90;;;;;;5102079;28;20203;-87
2022/07/11 13:15:21;;;;;;;1.27;0.73;;;23.50;99.90;;;;;;5105931;28;20582;-87
2022/07/11 13:17:55;;;;;;;1.02;0.60;;;23.50;99.90;;;;;;5113190;27;20234;-87
2022/07/11 13:20:29;;;;;;;1.15;1.00;;;23.60;99.90;;;;;;5114156;27;20204;-88
2022/07/11 13:22:58;;;;;;;0.82;0.70;;;23.70;99.90;;;;;;5118697;27;20213;-88
2022/07/11 13:25:26;;;;;;;0.68;0.68;;;23.90;99.90;;;;;;5107020;27;20198;-85